sensor_id;sensor_type;location;lat;lon;timestamp;temperature;humidity
64983;DHT22;69426;28.138;-15.436;2023-05-27T12:45:58;24.27;61.27
64983;DHT22;69426;28.138;-15.436;2023-05-27T12:48:25;24.28;61.21
64983;DHT22;69426;28.138;-15.436;2023-05-27T12:50:50;24.20;61.03
64983;DHT22;69426;28.138;-15.436;2023-05-27T12:53:16;24.24;61.78
64983;DHT22;69426;28.138;-15.436;2023-05-27T12:55:43;24.20;61.19
64983;DHT22;69426;28.138;-15.436;2023-05-27T12:58:11;24.14;61.50
64983;DHT22;69426;28.138;-15.436;2023-05-27T13:00:37;24.14;61.50
64983;DHT22;69426;28.138;-15.436;2023-05-27T13:03:03;24.12;61.66
64983;DHT22;69426;28.138;-15.436;2023-05-27T13:05:28;24.09;61.77
64983;DHT22;69426;28.138;-15.436;2023-05-27T13:08:02;24.12;61.39
64983;DHT22;69426;28.138;-15.436;2023-05-27T13:10:29;24.17;61.04
64983;DHT22;69426;28.138;-15.436;2023-05-27T13:12:55;24.09;61.25
64983;DHT22;69426;28.138;-15.436;2023-05-27T13:15:21;24.04;61.33
64983;DHT22;69426;28.138;-15.436;2023-05-27T13:17:49;24.04;61.61
64983;DHT22;69426;28.138;-15.436;2023-05-27T13:20:15;24.06;61.90
64983;DHT22;69426;28.138;-15.436;2023-05-27T13:22:43;24.10;61.87
64983;DHT22;69426;28.138;-15.436;2023-05-27T13:25:09;24.07;61.90
64983;DHT22;69426;28.138;-15.436;2023-05-27T13:27:36;24.04;61.89
64983;DHT22;69426;28.138;-15.436;2023-05-27T13:30:02;24.06;62.00
64983;DHT22;69426;28.138;-15.436;2023-05-27T13:32:28;24.03;61.87
64983;DHT22;69426;28.138;-15.436;2023-05-27T13:34:54;24.06;61.81
64983;DHT22;69426;28.138;-15.436;2023-05-27T13:37:20;24.02;61.99
64983;DHT22;69426;28.138;-15.436;2023-05-27T13:39:46;23.99;62.11
64983;DHT22;69426;28.138;-15.436;2023-05-27T13:42:12;24.10;62.14
64983;DHT22;69426;28.138;-15.436;2023-05-27T13:44:38;24.20;61.95
64983;DHT22;69426;28.138;-15.436;2023-05-27T13:47:04;24.20;61.97
64983;DHT22;69426;28.138;-15.436;2023-05-27T13:49:30;24.17;62.12
64983;DHT22;69426;28.138;-15.436;2023-05-27T13:51:55;24.16;62.20
64983;DHT22;69426;28.138;-15.436;2023-05-27T13:54:21;24.24;62.12
64983;DHT22;69426;28.138;-15.436;2023-05-27T13:56:47;24.25;62.12
64983;DHT22;69426;28.138;-15.436;2023-05-27T13:59:14;24.34;61.89
64983;DHT22;69426;28.138;-15.436;2023-05-27T14:01:40;24.40;61.69
64983;DHT22;69426;28.138;-15.436;2023-05-27T14:04:08;24.44;61.55
64983;DHT22;69426;28.138;-15.436;2023-05-27T14:06:34;24.55;61.26
64983;DHT22;69426;28.138;-15.436;2023-05-27T14:09:01;24.52;61.20
64983;DHT22;69426;28.138;-15.436;2023-05-27T14:11:27;24.57;60.96
64983;DHT22;69426;28.138;-15.436;2023-05-27T14:13:53;24.58;61.44
64983;DHT22;69426;28.138;-15.436;2023-05-27T14:16:23;24.62;61.77
64983;DHT22;69426;28.138;-15.436;2023-05-27T14:18:49;24.61;62.01
64983;DHT22;69426;28.138;-15.436;2023-05-27T14:21:15;24.50;62.50
64983;DHT22;69426;28.138;-15.436;2023-05-27T14:23:41;24.60;62.31
64983;DHT22;69426;28.138;-15.436;2023-05-27T14:26:07;24.52;62.51
64983;DHT22;69426;28.138;-15.436;2023-05-27T14:28:33;24.40;62.70
64983;DHT22;69426;28.138;-15.436;2023-05-27T14:30:59;24.37;62.86
64983;DHT22;69426;28.138;-15.436;2023-05-27T14:33:24;24.44;62.60
64983;DHT22;69426;28.138;-15.436;2023-05-27T14:35:50;24.43;62.31
64983;DHT22;69426;28.138;-15.436;2023-05-27T14:38:17;24.43;62.20
64983;DHT22;69426;28.138;-15.436;2023-05-27T14:40:42;24.41;62.13
64983;DHT22;69426;28.138;-15.436;2023-05-27T14:43:09;24.35;62.22
64983;DHT22;69426;28.138;-15.436;2023-05-27T14:45:35;24.34;62.45
64983;DHT22;69426;28.138;-15.436;2023-05-27T14:48:01;24.31;62.58
64983;DHT22;69426;28.138;-15.436;2023-05-27T14:50:26;24.28;62.64
64983;DHT22;69426;28.138;-15.436;2023-05-27T14:52:53;24.20;62.72
64983;DHT22;69426;28.138;-15.436;2023-05-27T14:55:19;24.24;62.85
64983;DHT22;69426;28.138;-15.436;2023-05-27T14:57:45;24.35;62.84
64983;DHT22;69426;28.138;-15.436;2023-05-27T15:00:11;24.30;63.03
64983;DHT22;69426;28.138;-15.436;2023-05-27T15:02:37;24.24;63.31
64983;DHT22;69426;28.138;-15.436;2023-05-27T15:12:20;24.58;62.23
64983;DHT22;69426;28.138;-15.436;2023-05-27T15:14:46;24.61;62.05
64983;DHT22;69426;28.138;-15.436;2023-05-27T15:17:11;24.62;62.11
64983;DHT22;69426;28.138;-15.436;2023-05-27T15:19:38;24.61;62.33
64983;DHT22;69426;28.138;-15.436;2023-05-27T15:22:05;24.67;62.65
64983;DHT22;69426;28.138;-15.436;2023-05-27T15:24:32;24.57;62.58
64983;DHT22;69426;28.138;-15.436;2023-05-27T15:26:58;24.72;61.91
64983;DHT22;69426;28.138;-15.436;2023-05-27T15:29:24;24.61;62.39
64983;DHT22;69426;28.138;-15.436;2023-05-27T15:31:50;24.62;62.51
64983;DHT22;69426;28.138;-15.436;2023-05-27T15:34:16;24.78;61.94
64983;DHT22;69426;28.138;-15.436;2023-05-27T15:36:41;24.82;61.86
64983;DHT22;69426;28.138;-15.436;2023-05-27T15:39:07;24.85;61.68
64983;DHT22;69426;28.138;-15.436;2023-05-27T15:41:33;24.72;62.38
64983;DHT22;69426;28.138;-15.436;2023-05-27T15:43:58;24.72;62.91
64983;DHT22;69426;28.138;-15.436;2023-05-27T15:46:25;24.69;63.11
64983;DHT22;69426;28.138;-15.436;2023-05-27T15:48:51;24.75;63.01
64983;DHT22;69426;28.138;-15.436;2023-05-27T15:51:18;24.85;62.81
64983;DHT22;69426;28.138;-15.436;2023-05-27T15:53:43;25.03;62.74
64983;DHT22;69426;28.138;-15.436;2023-05-27T15:56:11;25.08;62.08
64983;DHT22;69426;28.138;-15.436;2023-05-27T15:58:36;25.09;61.74
64983;DHT22;69426;28.138;-15.436;2023-05-27T16:01:02;25.18;61.44
64983;DHT22;69426;28.138;-15.436;2023-05-27T16:03:28;25.22;61.55
64983;DHT22;69426;28.138;-15.436;2023-05-27T16:05:53;25.23;61.40
64983;DHT22;69426;28.138;-15.436;2023-05-27T16:08:19;25.20;61.13
64983;DHT22;69426;28.138;-15.436;2023-05-27T16:10:54;25.26;60.90
64983;DHT22;69426;28.138;-15.436;2023-05-27T16:13:20;25.29;60.88
64983;DHT22;69426;28.138;-15.436;2023-05-27T16:15:47;25.26;60.83
64983;DHT22;69426;28.138;-15.436;2023-05-27T16:18:15;25.22;61.00
64983;DHT22;69426;28.138;-15.436;2023-05-27T16:20:47;25.36;61.57
64983;DHT22;69426;28.138;-15.436;2023-05-27T16:23:14;25.44;61.09
64983;DHT22;69426;28.138;-15.436;2023-05-27T16:25:40;25.46;61.26
64983;DHT22;69426;28.138;-15.436;2023-05-27T16:28:06;25.47;60.80
64983;DHT22;69426;28.138;-15.436;2023-05-27T16:30:31;25.31;60.09
64983;DHT22;69426;28.138;-15.436;2023-05-27T16:32:57;25.24;60.06
64983;DHT22;69426;28.138;-15.436;2023-05-27T16:35:23;25.29;60.14
64983;DHT22;69426;28.138;-15.436;2023-05-27T16:37:48;25.29;60.07
64983;DHT22;69426;28.138;-15.436;2023-05-27T16:40:14;25.19;60.39
64983;DHT22;69426;28.138;-15.436;2023-05-27T16:42:40;25.30;60.00
64983;DHT22;69426;28.138;-15.436;2023-05-27T16:45:07;25.31;60.28
64983;DHT22;69426;28.138;-15.436;2023-05-27T16:47:34;25.40;60.18
64983;DHT22;69426;28.138;-15.436;2023-05-27T16:50:00;25.27;60.66
64983;DHT22;69426;28.138;-15.436;2023-05-27T16:52:26;25.33;61.06
64983;DHT22;69426;28.138;-15.436;2023-05-27T16:54:52;25.37;60.27
64983;DHT22;69426;28.138;-15.436;2023-05-27T16:57:18;25.31;59.05
64983;DHT22;69426;28.138;-15.436;2023-05-27T16:59:44;25.39;59.10
64983;DHT22;69426;28.138;-15.436;2023-05-27T17:02:09;25.53;59.31
64983;DHT22;69426;28.138;-15.436;2023-05-27T17:04:38;25.53;60.19
64983;DHT22;69426;28.138;-15.436;2023-05-27T17:07:04;25.53;60.45
64983;DHT22;69426;28.138;-15.436;2023-05-27T17:09:35;25.46;60.53
64983;DHT22;69426;28.138;-15.436;2023-05-27T17:12:01;25.40;60.78
64983;DHT22;69426;28.138;-15.436;2023-05-27T17:14:26;25.24;61.44
64983;DHT22;69426;28.138;-15.436;2023-05-27T17:16:52;25.10;62.06
64983;DHT22;69426;28.138;-15.436;2023-05-27T17:19:17;24.99;62.24
64983;DHT22;69426;28.138;-15.436;2023-05-27T17:21:43;25.15;60.84
64983;DHT22;69426;28.138;-15.436;2023-05-27T17:24:09;25.01;60.96
64983;DHT22;69426;28.138;-15.436;2023-05-27T17:26:35;25.08;60.95
64983;DHT22;69426;28.138;-15.436;2023-05-27T17:29:00;25.06;61.06
64983;DHT22;69426;28.138;-15.436;2023-05-27T17:31:26;25.06;61.39
64983;DHT22;69426;28.138;-15.436;2023-05-27T17:33:53;25.02;61.62
64983;DHT22;69426;28.138;-15.436;2023-05-27T17:36:19;25.01;61.88
64983;DHT22;69426;28.138;-15.436;2023-05-27T17:38:45;24.91;62.10
64983;DHT22;69426;28.138;-15.436;2023-05-27T17:41:11;24.89;62.16
64983;DHT22;69426;28.138;-15.436;2023-05-27T17:43:37;24.91;62.44
64983;DHT22;69426;28.138;-15.436;2023-05-27T17:46:02;24.88;62.70
64983;DHT22;69426;28.138;-15.436;2023-05-27T17:48:28;24.88;62.89
64983;DHT22;69426;28.138;-15.436;2023-05-27T17:50:54;24.91;63.19
64983;DHT22;69426;28.138;-15.436;2023-05-27T17:53:20;24.89;63.37
64983;DHT22;69426;28.138;-15.436;2023-05-27T17:55:46;24.85;63.26
64983;DHT22;69426;28.138;-15.436;2023-05-27T17:58:12;24.88;62.59
64983;DHT22;69426;28.138;-15.436;2023-05-27T18:00:38;24.83;62.09
64983;DHT22;69426;28.138;-15.436;2023-05-27T18:03:04;24.78;62.07
64983;DHT22;69426;28.138;-15.436;2023-05-27T18:05:33;24.75;62.43
64983;DHT22;69426;28.138;-15.436;2023-05-27T18:07:59;24.69;61.96
64983;DHT22;69426;28.138;-15.436;2023-05-27T18:10:26;24.60;62.40
64983;DHT22;69426;28.138;-15.436;2023-05-27T18:12:52;24.68;62.44
64983;DHT22;69426;28.138;-15.436;2023-05-27T18:15:19;24.79;62.28
64983;DHT22;69426;28.138;-15.436;2023-05-27T18:17:45;24.78;61.80
64983;DHT22;69426;28.138;-15.436;2023-05-27T18:20:11;24.78;61.82
64983;DHT22;69426;28.138;-15.436;2023-05-27T18:22:37;24.79;61.60
64983;DHT22;69426;28.138;-15.436;2023-05-27T18:25:04;24.79;60.02
64983;DHT22;69426;28.138;-15.436;2023-05-27T18:27:33;24.78;60.37
64983;DHT22;69426;28.138;-15.436;2023-05-27T18:29:59;24.71;59.96
64983;DHT22;69426;28.138;-15.436;2023-05-27T18:32:25;24.72;60.11
64983;DHT22;69426;28.138;-15.436;2023-05-27T18:34:51;24.69;59.82
64983;DHT22;69426;28.138;-15.436;2023-05-27T18:37:16;24.65;60.02
64983;DHT22;69426;28.138;-15.436;2023-05-27T18:39:42;24.60;60.02
64983;DHT22;69426;28.138;-15.436;2023-05-27T18:42:07;24.55;60.07
64983;DHT22;69426;28.138;-15.436;2023-05-27T18:44:34;24.57;60.14
64983;DHT22;69426;28.138;-15.436;2023-05-27T18:46:59;24.55;60.42
64983;DHT22;69426;28.138;-15.436;2023-05-27T18:49:25;24.54;60.54
64983;DHT22;69426;28.138;-15.436;2023-05-27T18:51:52;24.51;60.90
64983;DHT22;69426;28.138;-15.436;2023-05-27T18:54:18;24.47;60.87
64983;DHT22;69426;28.138;-15.436;2023-05-27T18:56:45;24.48;61.04
64983;DHT22;69426;28.138;-15.436;2023-05-27T18:59:10;24.47;61.50
64983;DHT22;69426;28.138;-15.436;2023-05-27T19:01:36;24.44;61.73
64983;DHT22;69426;28.138;-15.436;2023-05-27T19:04:02;24.41;62.13
64983;DHT22;69426;28.138;-15.436;2023-05-27T19:06:28;24.43;62.16
64983;DHT22;69426;28.138;-15.436;2023-05-27T19:08:54;24.38;62.23
64983;DHT22;69426;28.138;-15.436;2023-05-27T19:11:20;24.37;62.24
64983;DHT22;69426;28.138;-15.436;2023-05-27T19:13:45;24.34;62.55
64983;DHT22;69426;28.138;-15.436;2023-05-27T19:16:11;24.31;62.49
64983;DHT22;69426;28.138;-15.436;2023-05-27T19:18:37;24.31;62.38
64983;DHT22;69426;28.138;-15.436;2023-05-27T19:21:02;24.31;62.44
64983;DHT22;69426;28.138;-15.436;2023-05-27T19:23:28;24.31;62.54
64983;DHT22;69426;28.138;-15.436;2023-05-27T19:25:54;24.27;63.22
64983;DHT22;69426;28.138;-15.436;2023-05-27T19:28:19;24.24;63.79
64983;DHT22;69426;28.138;-15.436;2023-05-27T19:30:45;24.23;63.92
64983;DHT22;69426;28.138;-15.436;2023-05-27T19:33:11;24.21;64.15
64983;DHT22;69426;28.138;-15.436;2023-05-27T19:35:40;24.21;64.38
64983;DHT22;69426;28.138;-15.436;2023-05-27T19:38:05;24.14;65.05
64983;DHT22;69426;28.138;-15.436;2023-05-27T19:40:32;24.09;65.17
64983;DHT22;69426;28.138;-15.436;2023-05-27T19:42:59;24.06;65.41
64983;DHT22;69426;28.138;-15.436;2023-05-27T19:45:25;24.00;65.70
64983;DHT22;69426;28.138;-15.436;2023-05-27T19:47:51;23.90;66.18
64983;DHT22;69426;28.138;-15.436;2023-05-27T19:50:17;23.90;66.25
64983;DHT22;69426;28.138;-15.436;2023-05-27T19:52:44;23.89;66.38
64983;DHT22;69426;28.138;-15.436;2023-05-27T19:55:10;23.87;66.49
64983;DHT22;69426;28.138;-15.436;2023-05-27T19:57:37;23.87;66.54
64983;DHT22;69426;28.138;-15.436;2023-05-27T20:00:03;23.86;66.75
64983;DHT22;69426;28.138;-15.436;2023-05-27T20:02:31;23.83;66.91
64983;DHT22;69426;28.138;-15.436;2023-05-27T20:04:57;23.79;67.28
64983;DHT22;69426;28.138;-15.436;2023-05-27T20:07:22;23.75;67.52
64983;DHT22;69426;28.138;-15.436;2023-05-27T20:09:48;23.76;67.57
64983;DHT22;69426;28.138;-15.436;2023-05-27T20:12:14;23.70;67.52
64983;DHT22;69426;28.138;-15.436;2023-05-27T20:14:40;23.79;67.61
64983;DHT22;69426;28.138;-15.436;2023-05-27T20:17:05;23.76;67.87
64983;DHT22;69426;28.138;-15.436;2023-05-27T20:19:31;23.76;67.87
64983;DHT22;69426;28.138;-15.436;2023-05-27T20:21:58;23.79;68.07
64983;DHT22;69426;28.138;-15.436;2023-05-27T20:24:23;23.77;68.44
64983;DHT22;69426;28.138;-15.436;2023-05-27T20:26:49;23.70;68.69
64983;DHT22;69426;28.138;-15.436;2023-05-27T20:29:15;23.68;68.93
64983;DHT22;69426;28.138;-15.436;2023-05-27T20:31:42;23.65;69.10
64983;DHT22;69426;28.138;-15.436;2023-05-27T20:34:07;23.69;68.97
64983;DHT22;69426;28.138;-15.436;2023-05-27T20:36:33;23.66;68.94
64983;DHT22;69426;28.138;-15.436;2023-05-27T20:38:59;23.65;69.13
64983;DHT22;69426;28.138;-15.436;2023-05-27T20:41:26;23.63;69.27
64983;DHT22;69426;28.138;-15.436;2023-05-27T20:43:52;23.63;69.44
64983;DHT22;69426;28.138;-15.436;2023-05-27T20:46:23;23.62;69.40
64983;DHT22;69426;28.138;-15.436;2023-05-27T20:48:51;23.65;69.45
64983;DHT22;69426;28.138;-15.436;2023-05-27T20:51:17;23.59;69.61
64983;DHT22;69426;28.138;-15.436;2023-05-27T20:53:43;23.62;69.70
64983;DHT22;69426;28.138;-15.436;2023-05-27T20:56:08;23.65;69.72
64983;DHT22;69426;28.138;-15.436;2023-05-27T20:58:34;23.63;69.94
64983;DHT22;69426;28.138;-15.436;2023-05-27T21:01:00;23.62;69.98
64983;DHT22;69426;28.138;-15.436;2023-05-27T21:03:25;23.61;70.12
64983;DHT22;69426;28.138;-15.436;2023-05-27T21:05:51;23.59;69.99
64983;DHT22;69426;28.138;-15.436;2023-05-27T21:08:17;23.62;69.81
64983;DHT22;69426;28.138;-15.436;2023-05-27T21:10:42;23.62;69.70
64983;DHT22;69426;28.138;-15.436;2023-05-27T21:13:08;23.65;69.56
64983;DHT22;69426;28.138;-15.436;2023-05-27T21:15:33;23.62;69.39
64983;DHT22;69426;28.138;-15.436;2023-05-27T21:17:59;23.63;69.42
64983;DHT22;69426;28.138;-15.436;2023-05-27T21:20:25;23.65;69.46
64983;DHT22;69426;28.138;-15.436;2023-05-27T21:22:50;23.61;69.49
64983;DHT22;69426;28.138;-15.436;2023-05-27T21:25:17;23.58;69.62
64983;DHT22;69426;28.138;-15.436;2023-05-27T21:27:43;23.61;69.48
64983;DHT22;69426;28.138;-15.436;2023-05-27T21:30:08;23.56;69.24
64983;DHT22;69426;28.138;-15.436;2023-05-27T21:32:36;23.56;69.30
64983;DHT22;69426;28.138;-15.436;2023-05-27T21:35:02;23.54;69.60
64983;DHT22;69426;28.138;-15.436;2023-05-27T21:37:27;23.44;69.65
64983;DHT22;69426;28.138;-15.436;2023-05-27T21:39:53;23.34;70.07
64983;DHT22;69426;28.138;-15.436;2023-05-27T21:42:19;23.28;70.35
64983;DHT22;69426;28.138;-15.436;2023-05-27T21:44:48;23.28;70.19
64983;DHT22;69426;28.138;-15.436;2023-05-27T21:47:15;23.38;70.02
64983;DHT22;69426;28.138;-15.436;2023-05-27T21:49:41;23.45;69.79
64983;DHT22;69426;28.138;-15.436;2023-05-27T21:52:06;23.45;69.72
64983;DHT22;69426;28.138;-15.436;2023-05-27T21:54:32;23.52;69.14
64983;DHT22;69426;28.138;-15.436;2023-05-27T21:56:57;23.44;69.02
64983;DHT22;69426;28.138;-15.436;2023-05-27T21:59:23;23.45;69.15
64983;DHT22;69426;28.138;-15.436;2023-05-27T22:01:49;23.48;69.14
64983;DHT22;69426;28.138;-15.436;2023-05-27T22:04:15;23.44;69.37
64983;DHT22;69426;28.138;-15.436;2023-05-27T22:06:41;23.39;69.19
64983;DHT22;69426;28.138;-15.436;2023-05-27T22:09:08;23.25;68.95
64983;DHT22;69426;28.138;-15.436;2023-05-27T22:11:34;23.37;68.67
64983;DHT22;69426;28.138;-15.436;2023-05-27T22:14:01;23.38;68.76
64983;DHT22;69426;28.138;-15.436;2023-05-27T22:16:27;23.44;68.66
64983;DHT22;69426;28.138;-15.436;2023-05-27T22:18:53;23.41;68.72
64983;DHT22;69426;28.138;-15.436;2023-05-27T22:21:18;23.38;68.67
64983;DHT22;69426;28.138;-15.436;2023-05-27T22:23:44;23.39;68.74
64983;DHT22;69426;28.138;-15.436;2023-05-27T22:26:10;23.35;68.76
64983;DHT22;69426;28.138;-15.436;2023-05-27T22:28:35;23.41;68.64
64983;DHT22;69426;28.138;-15.436;2023-05-27T22:31:01;23.42;68.73
64983;DHT22;69426;28.138;-15.436;2023-05-27T22:33:27;23.45;69.00
64983;DHT22;69426;28.138;-15.436;2023-05-27T22:35:55;23.49;68.99
64983;DHT22;69426;28.138;-15.436;2023-05-27T22:38:20;23.44;69.09
64983;DHT22;69426;28.138;-15.436;2023-05-27T22:40:46;23.42;69.16
64983;DHT22;69426;28.138;-15.436;2023-05-27T22:43:12;23.42;69.05
64983;DHT22;69426;28.138;-15.436;2023-05-27T22:45:37;23.39;69.21
64983;DHT22;69426;28.138;-15.436;2023-05-27T22:48:03;23.44;69.36
64983;DHT22;69426;28.138;-15.436;2023-05-27T22:50:29;23.47;69.34
64983;DHT22;69426;28.138;-15.436;2023-05-27T22:52:55;23.39;69.65
64983;DHT22;69426;28.138;-15.436;2023-05-27T22:55:20;23.25;69.92
64983;DHT22;69426;28.138;-15.436;2023-05-27T22:57:46;23.28;69.21
64983;DHT22;69426;28.138;-15.436;2023-05-27T23:00:12;23.10;69.12
64983;DHT22;69426;28.138;-15.436;2023-05-27T23:02:38;23.00;68.94
64983;DHT22;69426;28.138;-15.436;2023-05-27T23:05:04;23.06;68.85
64983;DHT22;69426;28.138;-15.436;2023-05-27T23:07:29;23.10;68.74
64983;DHT22;69426;28.138;-15.436;2023-05-27T23:09:55;23.06;68.65
64983;DHT22;69426;28.138;-15.436;2023-05-27T23:12:21;22.93;69.12
64983;DHT22;69426;28.138;-15.436;2023-05-27T23:14:46;22.93;69.12
64983;DHT22;69426;28.138;-15.436;2023-05-27T23:17:12;22.87;68.85
64983;DHT22;69426;28.138;-15.436;2023-05-27T23:19:38;22.87;68.52
64983;DHT22;69426;28.138;-15.436;2023-05-27T23:22:04;23.04;68.08
64983;DHT22;69426;28.138;-15.436;2023-05-27T23:24:29;23.07;67.88
64983;DHT22;69426;28.138;-15.436;2023-05-27T23:26:55;23.04;67.59
64983;DHT22;69426;28.138;-15.436;2023-05-27T23:29:21;23.04;67.28
64983;DHT22;69426;28.138;-15.436;2023-05-27T23:31:46;23.07;67.12
64983;DHT22;69426;28.138;-15.436;2023-05-27T23:34:12;23.07;66.76
64983;DHT22;69426;28.138;-15.436;2023-05-27T23:36:38;23.06;66.73
64983;DHT22;69426;28.138;-15.436;2023-05-27T23:39:04;23.03;66.42
64983;DHT22;69426;28.138;-15.436;2023-05-27T23:41:30;23.01;66.24
64983;DHT22;69426;28.138;-15.436;2023-05-27T23:43:56;23.00;66.12
64983;DHT22;69426;28.138;-15.436;2023-05-27T23:46:21;23.06;66.09
64983;DHT22;69426;28.138;-15.436;2023-05-27T23:48:47;23.04;65.77
64983;DHT22;69426;28.138;-15.436;2023-05-27T23:51:13;22.96;65.72
64983;DHT22;69426;28.138;-15.436;2023-05-27T23:53:38;22.84;65.44
64983;DHT22;69426;28.138;-15.436;2023-05-27T23:56:04;22.83;65.68
64983;DHT22;69426;28.138;-15.436;2023-05-27T23:58:30;22.90;65.66
